Time;durP1;ratioP1;P1;durP2;ratioP2;P2;SDS_P1;SDS_P2;PMS_P1;PMS_P2;Temp;Humidity;BMP_temperature;BMP_pressure;BME280_temperature;BME280_humidity;BME280_pressure;Samples;Min_cycle;Max_cycle;Signal;HPM_P1;HPM_P2
2022/12/21 00:02:56;;;;;;;47.10;19.80;;;;;;;;;;8315342;28;20049;-84
2022/12/21 00:06:59;;;;;;;27.77;11.77;;;;;;;;;;8315897;28;20104;-85
2022/12/21 00:11:02;;;;;;;56.45;22.48;;;;;;;;;;8325983;28;20140;-86
2022/12/21 00:15:08;;;;;;;64.10;24.80;;;;;;;;;;8318071;28;20077;-85
2022/12/21 00:19:14;;;;;;;58.05;22.70;;;;;;;;;;8315068;28;20481;-85
2022/12/21 00:23:17;;;;;;;59.05;24.65;;;;;;;;;;8304706;28;20053;-85
2022/12/21 00:27:20;;;;;;;63.10;25.33;;;;;;;;;;8315521;28;20080;-85
2022/12/21 00:31:27;;;;;;;57.22;23.95;;;;;;;;;;8328796;28;20053;-85
2022/12/21 00:35:30;;;;;;;65.50;24.67;;;;;;;;;;8313417;28;20049;-85
2022/12/21 00:39:33;;;;;;;63.50;24.52;;;;;;;;;;8317897;28;20084;-86
2022/12/21 00:43:38;;;;;;;64.13;25.83;;;;;;;;;;8314145;28;20053;-85
2022/12/21 00:47:43;;;;;;;58.45;23.90;;;;;;;;;;8313207;28;20547;-85
2022/12/21 00:51:45;;;;;;;56.60;22.63;;;;;;;;;;8327384;28;20111;-85
2022/12/21 00:55:56;;;;;;;44.13;19.20;;;;;;;;;;8328560;28;20119;-85
2022/12/21 00:59:58;;;;;;;62.47;24.75;;;;;;;;;;8328436;28;20056;-84
2022/12/21 01:04:06;;;;;;;56.05;23.77;;;;;;;;;;8328218;28;20050;-84
2022/12/21 01:08:09;;;;;;;54.60;21.77;;;;;;;;;;8328131;28;20053;-85
2022/12/21 01:12:11;;;;;;;50.08;20.60;;;;;;;;;;8327387;28;20111;-85
2022/12/21 01:16:16;;;;;;;16.88;7.22;;;;;;;;;;8324686;28;20128;-85
2022/12/21 01:20:20;;;;;;;49.10;22.95;;;;;;;;;;8322967;28;20049;-85
2022/12/21 01:24:23;;;;;;;54.70;22.58;;;;;;;;;;8329676;28;20107;-85
2022/12/21 01:28:25;;;;;;;64.55;22.98;;;;;;;;;;8328540;28;20128;-85
2022/12/21 01:32:28;;;;;;;46.83;20.08;;;;;;;;;;8311378;28;20066;-85
2022/12/21 01:36:33;;;;;;;53.40;19.73;;;;;;;;;;8331197;28;20156;-84
2022/12/21 01:40:36;;;;;;;41.42;19.02;;;;;;;;;;8322857;28;20111;-86
2022/12/21 01:45:04;;;;;;;49.60;20.52;;;;;;;;;;8319381;28;20115;-84
2022/12/21 01:49:16;;;;;;;51.15;22.33;;;;;;;;;;8319488;28;20049;-85
2022/12/21 01:53:24;;;;;;;59.25;21.73;;;;;;;;;;8327657;28;20085;-85
2022/12/21 01:57:29;;;;;;;56.08;22.67;;;;;;;;;;8319297;28;20044;-85
2022/12/21 02:01:32;;;;;;;52.65;21.30;;;;;;;;;;8326221;28;20133;-85
2022/12/21 02:05:41;;;;;;;43.97;17.65;;;;;;;;;;8327647;28;20046;-85
2022/12/21 02:09:45;;;;;;;41.17;18.60;;;;;;;;;;8314372;28;20402;-84
2022/12/21 02:13:48;;;;;;;41.83;18.13;;;;;;;;;;8322164;28;20072;-85
2022/12/21 02:17:57;;;;;;;45.97;20.85;;;;;;;;;;8312945;28;20077;-85
2022/12/21 02:22:05;;;;;;;52.55;21.58;;;;;;;;;;8304026;28;20091;-84
2022/12/21 02:26:26;;;;;;;52.35;22.20;;;;;;;;;;8306577;28;20081;-84
2022/12/21 02:30:46;;;;;;;43.58;17.65;;;;;;;;;;8319926;28;20515;-85
2022/12/21 02:35:00;;;;;;;57.10;22.02;;;;;;;;;;8316351;28;20045;-85
2022/12/21 02:39:11;;;;;;;52.60;21.75;;;;;;;;;;8315591;28;20059;-85
2022/12/21 02:47:47;;;;;;;53.72;21.52;;;;;;;;;;8310631;28;20128;-85
2022/12/21 02:51:56;;;;;;;51.22;21.75;;;;;;;;;;8318715;28;20093;-85
2022/12/21 02:55:59;;;;;;;50.42;21.20;;;;;;;;;;8325430;28;20158;-85
2022/12/21 03:00:04;;;;;;;44.80;19.35;;;;;;;;;;8321168;28;20052;-85
2022/12/21 03:04:35;;;;;;;54.45;22.65;;;;;;;;;;8315507;28;20033;-85
2022/12/21 03:08:51;;;;;;;50.17;19.45;;;;;;;;;;8314048;28;20067;-85
2022/12/21 03:13:04;;;;;;;58.53;22.15;;;;;;;;;;8329655;28;20701;-85
2022/12/21 03:17:17;;;;;;;54.47;22.30;;;;;;;;;;8329177;28;20116;-86
2022/12/21 03:21:30;;;;;;;50.17;19.45;;;;;;;;;;8329227;28;20077;-85
2022/12/21 03:25:41;;;;;;;51.40;22.10;;;;;;;;;;8329515;28;20053;-85
2022/12/21 03:29:51;;;;;;;30.25;12.30;;;;;;;;;;8326082;28;20073;-84
2022/12/21 03:33:59;;;;;;;61.40;35.03;;;;;;;;;;8329127;28;20394;-84
2022/12/21 03:38:12;;;;;;;58.58;26.13;;;;;;;;;;8329244;28;20077;-84
2022/12/21 03:42:19;;;;;;;48.42;21.77;;;;;;;;;;8320767;28;20452;-84
2022/12/21 03:46:26;;;;;;;46.92;20.25;;;;;;;;;;8323492;28;20045;-85
2022/12/21 03:50:34;;;;;;;54.45;23.42;;;;;;;;;;8316265;28;20079;-84
2022/12/21 03:54:44;;;;;;;52.90;20.77;;;;;;;;;;8314493;28;20048;-83
2022/12/21 03:58:47;;;;;;;55.00;23.17;;;;;;;;;;8316688;28;20045;-84
2022/12/21 04:02:55;;;;;;;76.53;29.05;;;;;;;;;;8317789;28;20049;-84
2022/12/21 04:07:00;;;;;;;34.72;13.30;;;;;;;;;;8327894;28;20045;-84
2022/12/21 04:11:05;;;;;;;49.92;20.73;;;;;;;;;;8320337;28;20080;-84
2022/12/21 04:15:11;;;;;;;48.72;19.95;;;;;;;;;;8313707;28;20064;-85
2022/12/21 04:28:10;;;;;;;48.60;20.38;;;;;;;;;;8324327;28;20591;-85
2022/12/21 04:32:13;;;;;;;45.67;19.33;;;;;;;;;;8318790;28;20053;-85
2022/12/21 04:40:35;;;;;;;58.25;22.40;;;;;;;;;;8318268;28;20049;-85
2022/12/21 04:44:40;;;;;;;61.00;22.38;;;;;;;;;;8322727;28;20047;-85
2022/12/21 04:48:44;;;;;;;53.05;22.52;;;;;;;;;;8328287;28;20057;-85
2022/12/21 04:52:46;;;;;;;62.17;21.70;;;;;;;;;;8325499;28;20072;-85
2022/12/21 04:56:49;;;;;;;26.55;9.13;;;;;;;;;;8320057;28;20045;-85
2022/12/21 05:00:53;;;;;;;64.75;24.77;;;;;;;;;;8324167;28;20477;-85
2022/12/21 05:04:56;;;;;;;58.08;22.58;;;;;;;;;;8332754;28;20061;-85
2022/12/21 05:08:59;;;;;;;59.83;21.52;;;;;;;;;;8325567;28;20047;-85
2022/12/21 05:13:02;;;;;;;53.17;21.42;;;;;;;;;;8324970;28;20541;-85
2022/12/21 05:17:06;;;;;;;68.90;24.83;;;;;;;;;;8328941;28;20123;-85
2022/12/21 05:21:10;;;;;;;52.88;21.63;;;;;;;;;;8321340;28;20046;-84
2022/12/21 05:25:12;;;;;;;55.95;23.85;;;;;;;;;;8334014;28;20069;-85
2022/12/21 05:29:15;;;;;;;51.42;19.58;;;;;;;;;;8332564;28;20572;-84
2022/12/21 05:33:19;;;;;;;18.02;7.32;;;;;;;;;;8315627;28;20057;-84
2022/12/21 05:37:22;;;;;;;38.33;13.40;;;;;;;;;;8309520;28;20133;-85
2022/12/21 05:41:25;;;;;;;46.30;20.05;;;;;;;;;;8328618;28;20120;-84
2022/12/21 05:45:28;;;;;;;63.20;23.77;;;;;;;;;;8312055;28;20481;-85
2022/12/21 05:49:32;;;;;;;53.67;21.92;;;;;;;;;;8330801;28;20124;-85
2022/12/21 05:53:35;;;;;;;60.72;23.00;;;;;;;;;;8323225;28;20084;-85
2022/12/21 05:57:38;;;;;;;28.48;12.95;;;;;;;;;;8317533;28;20046;-85
2022/12/21 06:01:40;;;;;;;52.80;22.05;;;;;;;;;;8311754;28;20110;-85
2022/12/21 06:05:45;;;;;;;45.22;17.92;;;;;;;;;;8319708;28;20481;-85
2022/12/21 06:09:47;;;;;;;39.88;17.30;;;;;;;;;;8324853;28;20037;-84
2022/12/21 06:13:53;;;;;;;46.00;17.20;;;;;;;;;;8320365;28;20476;-84
2022/12/21 06:17:56;;;;;;;38.10;15.93;;;;;;;;;;8310444;28;20042;-85
2022/12/21 06:22:01;;;;;;;44.55;19.92;;;;;;;;;;8320831;28;20474;-86
2022/12/21 06:26:06;;;;;;;44.50;18.88;;;;;;;;;;8308731;28;20041;-85
2022/12/21 06:30:10;;;;;;;43.60;16.40;;;;;;;;;;8312232;28;20045;-84
2022/12/21 06:34:14;;;;;;;49.85;20.13;;;;;;;;;;8319185;28;20455;-84
2022/12/21 06:38:18;;;;;;;45.38;19.10;;;;;;;;;;8316216;28;20103;-85
2022/12/21 06:42:21;;;;;;;36.58;15.05;;;;;;;;;;8326941;28;20076;-85
2022/12/21 06:46:24;;;;;;;40.35;19.00;;;;;;;;;;8311987;28;20045;-84
2022/12/21 06:50:27;;;;;;;44.58;18.92;;;;;;;;;;8314708;28;20061;-85
2022/12/21 06:54:31;;;;;;;54.05;23.35;;;;;;;;;;8299580;28;20046;-83
2022/12/21 06:58:34;;;;;;;46.90;18.20;;;;;;;;;;8306217;28;20052;-83
2022/12/21 07:02:37;;;;;;;55.22;22.52;;;;;;;;;;8328221;28;20049;-84
2022/12/21 07:06:41;;;;;;;44.50;18.95;;;;;;;;;;8309844;28;20041;-84
2022/12/21 07:10:46;;;;;;;56.80;24.08;;;;;;;;;;8321382;28;20069;-85
2022/12/21 07:14:52;;;;;;;30.95;12.20;;;;;;;;;;8311305;28;20046;-86
2022/12/21 07:18:55;;;;;;;35.80;14.93;;;;;;;;;;8312058;28;20041;-86
2022/12/21 07:22:57;;;;;;;62.95;22.38;;;;;;;;;;8327183;28;20045;-85
2022/12/21 07:27:02;;;;;;;86.35;43.15;;;;;;;;;;8324929;28;20046;-87
2022/12/21 07:31:06;;;;;;;42.05;18.60;;;;;;;;;;8322339;28;20073;-84
2022/12/21 07:35:10;;;;;;;82.15;36.20;;;;;;;;;;8317730;28;20041;-86
2022/12/21 07:39:13;;;;;;;43.67;20.38;;;;;;;;;;8312152;28;20041;-86
2022/12/21 07:43:18;;;;;;;48.35;20.95;;;;;;;;;;8324584;28;20042;-85
2022/12/21 07:47:20;;;;;;;41.92;19.08;;;;;;;;;;8323588;28;20041;-86
2022/12/21 07:51:24;;;;;;;45.08;18.85;;;;;;;;;;8327826;28;20061;-85
2022/12/21 07:55:27;;;;;;;44.63;19.48;;;;;;;;;;8328020;28;20100;-87
2022/12/21 07:59:31;;;;;;;44.40;21.33;;;;;;;;;;8316991;28;20045;-85
2022/12/21 08:03:35;;;;;;;38.10;19.08;;;;;;;;;;8319819;28;20517;-85
2022/12/21 08:07:38;;;;;;;57.08;24.92;;;;;;;;;;8317932;28;20052;-85
2022/12/21 08:11:41;;;;;;;47.42;20.90;;;;;;;;;;8324393;28;20558;-85
2022/12/21 08:15:45;;;;;;;41.75;17.63;;;;;;;;;;8333519;28;20041;-86
2022/12/21 08:19:48;;;;;;;34.85;17.20;;;;;;;;;;8334134;28;20045;-86
2022/12/21 08:23:51;;;;;;;41.90;19.35;;;;;;;;;;8332020;28;20049;-87
2022/12/21 08:27:55;;;;;;;42.85;19.55;;;;;;;;;;8328691;28;20041;-86
2022/12/21 08:31:59;;;;;;;44.25;21.92;;;;;;;;;;8321696;28;20141;-85
2022/12/21 08:36:09;;;;;;;46.03;18.10;;;;;;;;;;8317787;28;20059;-84
2022/12/21 08:40:13;;;;;;;41.85;18.83;;;;;;;;;;8314385;28;20057;-86
2022/12/21 08:44:16;;;;;;;43.22;18.20;;;;;;;;;;8320200;28;20049;-86
2022/12/21 08:48:23;;;;;;;39.80;16.77;;;;;;;;;;8319579;28;20061;-87
2022/12/21 08:52:26;;;;;;;42.60;19.58;;;;;;;;;;8319612;28;20062;-86
2022/12/21 08:56:29;;;;;;;39.20;15.82;;;;;;;;;;8316507;28;20041;-86
2022/12/21 09:00:32;;;;;;;36.40;15.45;;;;;;;;;;8325735;28;20511;-85
2022/12/21 09:04:38;;;;;;;39.45;17.27;;;;;;;;;;8312369;28;20095;-86
2022/12/21 09:08:41;;;;;;;45.38;19.77;;;;;;;;;;8313370;28;20141;-84
2022/12/21 09:12:44;;;;;;;40.28;17.75;;;;;;;;;;8315166;28;20117;-86
2022/12/21 09:16:47;;;;;;;44.22;19.50;;;;;;;;;;8330289;28;20501;-86
2022/12/21 09:20:54;;;;;;;45.70;20.23;;;;;;;;;;8340671;28;20095;-85
2022/12/21 09:24:57;;;;;;;45.28;20.60;;;;;;;;;;8338135;28;20041;-90
2022/12/21 09:29:00;;;;;;;38.95;17.70;;;;;;;;;;8309912;28;20396;-87
2022/12/21 09:33:03;;;;;;;45.78;20.15;;;;;;;;;;8317937;28;20525;-86
2022/12/21 09:37:08;;;;;;;46.00;19.25;;;;;;;;;;8322042;28;20073;-86
2022/12/21 09:41:37;;;;;;;50.97;20.30;;;;;;;;;;8312025;28;20049;-84
2022/12/21 09:45:50;;;;;;;48.72;22.02;;;;;;;;;;8335959;28;20050;-86
2022/12/21 09:49:58;;;;;;;28.83;12.77;;;;;;;;;;8313333;28;20054;-85
2022/12/21 09:54:08;;;;;;;37.13;17.38;;;;;;;;;;8311488;28;20049;-84
2022/12/21 09:58:15;;;;;;;40.75;18.23;;;;;;;;;;8317051;28;20048;-87
2022/12/21 10:02:33;;;;;;;45.15;18.92;;;;;;;;;;8329911;28;20132;-84
2022/12/21 10:07:12;;;;;;;40.53;18.02;;;;;;;;;;8327466;28;20069;-85
2022/12/21 10:11:26;;;;;;;43.75;19.17;;;;;;;;;;8317195;28;20140;-84
2022/12/21 10:15:35;;;;;;;47.83;18.20;;;;;;;;;;8318295;28;20046;-84
2022/12/21 10:19:54;;;;;;;42.00;19.65;;;;;;;;;;8307750;28;20049;-85
2022/12/21 10:23:58;;;;;;;38.75;17.75;;;;;;;;;;8306183;28;20068;-85
2022/12/21 10:28:18;;;;;;;42.70;20.20;;;;;;;;;;8326086;28;20586;-85
2022/12/21 10:32:23;;;;;;;37.22;17.77;;;;;;;;;;8310786;28;20050;-84
2022/12/21 10:36:35;;;;;;;46.47;18.75;;;;;;;;;;8318175;28;20045;-85
2022/12/21 10:40:38;;;;;;;32.17;16.05;;;;;;;;;;8319415;28;20509;-85
2022/12/21 10:44:42;;;;;;;34.42;15.15;;;;;;;;;;8313295;28;20038;-86
2022/12/21 10:48:47;;;;;;;43.42;17.40;;;;;;;;;;8323712;28;20486;-84
2022/12/21 10:52:52;;;;;;;40.08;16.60;;;;;;;;;;8323615;28;20600;-86
2022/12/21 10:56:57;;;;;;;44.42;20.33;;;;;;;;;;8323661;28;20117;-86
2022/12/21 11:01:04;;;;;;;43.88;18.98;;;;;;;;;;8322530;28;20053;-86
2022/12/21 11:05:26;;;;;;;50.33;23.38;;;;;;;;;;8323425;28;20058;-85
2022/12/21 11:09:36;;;;;;;21.67;9.95;;;;;;;;;;8323166;28;20056;-87
2022/12/21 11:13:56;;;;;;;25.90;11.60;;;;;;;;;;8315202;28;20069;-86
2022/12/21 11:18:02;;;;;;;39.03;17.10;;;;;;;;;;8316332;28;20052;-86
2022/12/21 11:22:08;;;;;;;56.28;27.38;;;;;;;;;;8319886;28;20065;-85
2022/12/21 11:26:16;;;;;;;54.47;24.98;;;;;;;;;;8318326;28;20045;-86
2022/12/21 11:30:21;;;;;;;46.45;20.55;;;;;;;;;;8315406;28;20054;-86
2022/12/21 11:38:56;;;;;;;37.78;16.63;;;;;;;;;;8371147;28;20404;-84
2022/12/21 11:43:05;;;;;;;55.40;21.75;;;;;;;;;;8377123;28;20068;-86
2022/12/21 11:47:26;;;;;;;38.30;16.90;;;;;;;;;;8367482;28;20045;-87
2022/12/21 11:51:38;;;;;;;47.60;20.15;;;;;;;;;;8362284;28;20053;-85
2022/12/21 11:56:03;;;;;;;39.60;18.73;;;;;;;;;;8360363;28;20602;-86
2022/12/21 12:00:15;;;;;;;39.90;18.90;;;;;;;;;;8366062;28;20055;-84
2022/12/21 12:04:40;;;;;;;35.20;17.80;;;;;;;;;;8362274;28;20110;-86
2022/12/21 12:08:58;;;;;;;42.25;19.38;;;;;;;;;;8367463;28;20093;-87
2022/12/21 12:13:13;;;;;;;30.10;14.52;;;;;;;;;;8362225;28;20040;-85
2022/12/21 12:17:30;;;;;;;37.03;15.48;;;;;;;;;;8360767;28;20060;-86
2022/12/21 12:21:51;;;;;;;42.90;18.95;;;;;;;;;;8352703;28;20049;-86
2022/12/21 12:26:08;;;;;;;44.33;19.40;;;;;;;;;;8357279;28;20057;-87
2022/12/21 12:30:17;;;;;;;41.95;18.80;;;;;;;;;;8372797;28;20045;-84
2022/12/21 12:34:40;;;;;;;42.63;20.02;;;;;;;;;;8364306;28;20056;-85
2022/12/21 12:38:58;;;;;;;44.25;19.90;;;;;;;;;;8360091;28;20754;-86
2022/12/21 12:43:07;;;;;;;41.92;17.92;;;;;;;;;;8365737;28;20044;-86
2022/12/21 12:47:20;;;;;;;45.42;18.88;;;;;;;;;;8356330;28;20075;-86
2022/12/21 12:51:28;;;;;;;30.10;14.20;;;;;;;;;;8356162;28;20049;-85
2022/12/21 12:55:42;;;;;;;37.35;17.48;;;;;;;;;;8354492;28;20080;-84
2022/12/21 12:59:52;;;;;;;47.33;19.77;;;;;;;;;;8355163;28;20076;-83
2022/12/21 13:04:13;;;;;;;46.55;20.35;;;;;;;;;;8353335;28;20127;-83
2022/12/21 13:08:28;;;;;;;57.25;23.55;;;;;;;;;;8346714;28;20053;-83
2022/12/21 13:12:41;;;;;;;44.75;22.15;;;;;;;;;;8340852;28;20095;-83
2022/12/21 13:16:45;;;;;;;;;;;;;;;;;;8341176;28;20132;-85
2022/12/21 13:20:56;;;;;;;86.10;34.42;;;;;;;;;;8330859;28;19964;-85
2022/12/21 13:25:03;;;;;;;54.45;24.30;;;;;;;;;;8342589;28;20103;-86
2022/12/21 13:29:14;;;;;;;44.08;19.75;;;;;;;;;;8338589;28;20122;-86
2022/12/21 13:33:19;;;;;;;44.25;19.13;;;;;;;;;;8333320;28;20042;-86
2022/12/21 13:37:26;;;;;;;46.97;19.98;;;;;;;;;;8352038;28;20061;-85
2022/12/21 13:41:34;;;;;;;47.17;21.52;;;;;;;;;;8335802;28;20064;-86
2022/12/21 13:45:43;;;;;;;56.08;22.98;;;;;;;;;;8336257;28;20037;-85
2022/12/21 13:50:00;;;;;;;54.80;21.60;;;;;;;;;;8335737;28;20045;-88
2022/12/21 13:54:17;;;;;;;50.53;21.63;;;;;;;;;;8335523;28;20049;-85
2022/12/21 13:58:33;;;;;;;51.38;17.77;;;;;;;;;;8334728;28;20049;-89
2022/12/21 14:03:02;;;;;;;61.58;26.55;;;;;;;;;;8334573;28;20050;-90
2022/12/21 14:07:35;;;;;;;86.38;34.30;;;;;;;;;;8334613;28;20046;-88
2022/12/21 14:12:08;;;;;;;71.82;31.10;;;;;;;;;;8335781;28;20048;-87
2022/12/21 14:16:18;;;;;;;84.70;40.08;;;;;;;;;;8335215;28;20059;-86
2022/12/21 14:20:28;;;;;;;102.20;41.30;;;;;;;;;;8334693;28;20045;-86
2022/12/21 14:24:34;;;;;;;69.55;30.48;;;;;;;;;;8335776;28;20045;-87
2022/12/21 14:28:51;;;;;;;49.25;24.90;;;;;;;;;;8334786;28;20056;-89
2022/12/21 14:32:59;;;;;;;355.10;129.57;;;;;;;;;;8333952;28;20049;-87
2022/12/21 14:37:23;;;;;;;86.07;40.78;;;;;;;;;;8334010;28;20060;-85
2022/12/21 14:41:31;;;;;;;54.97;25.33;;;;;;;;;;8334209;28;20041;-84
2022/12/21 14:46:18;;;;;;;60.92;27.10;;;;;;;;;;8333358;28;20076;-85
2022/12/21 14:51:01;;;;;;;49.33;23.70;;;;;;;;;;8333732;28;20069;-89
2022/12/21 14:55:32;;;;;;;69.70;29.27;;;;;;;;;;8334883;28;20052;-90
2022/12/21 14:59:42;;;;;;;48.95;19.88;;;;;;;;;;8333954;28;20052;-88
2022/12/21 15:03:49;;;;;;;95.03;38.88;;;;;;;;;;8333497;28;20069;-86
2022/12/21 15:07:56;;;;;;;98.32;45.50;;;;;;;;;;8332883;28;20132;-83
2022/12/21 15:12:24;;;;;;;69.57;34.88;;;;;;;;;;8333970;28;20033;-85
2022/12/21 15:16:30;;;;;;;78.63;33.40;;;;;;;;;;8332944;28;20068;-83
2022/12/21 15:20:47;;;;;;;60.90;26.88;;;;;;;;;;8332879;28;20068;-85
2022/12/21 15:24:55;;;;;;;80.70;31.92;;;;;;;;;;8333337;28;20038;-83
2022/12/21 15:29:03;;;;;;;62.90;30.05;;;;;;;;;;8332883;28;20093;-84
2022/12/21 15:33:17;;;;;;;36.03;16.17;;;;;;;;;;8332308;28;20050;-86
2022/12/21 15:37:28;;;;;;;58.70;24.98;;;;;;;;;;8330819;28;20057;-81
2022/12/21 15:41:40;;;;;;;67.28;29.75;;;;;;;;;;8331382;28;20045;-84
2022/12/21 15:45:54;;;;;;;74.30;30.63;;;;;;;;;;8332270;28;20064;-82
2022/12/21 15:50:07;;;;;;;48.92;21.05;;;;;;;;;;8332035;28;20065;-83
2022/12/21 15:54:14;;;;;;;65.22;27.80;;;;;;;;;;8332465;28;20041;-88
2022/12/21 15:58:23;;;;;;;103.80;38.92;;;;;;;;;;8332296;28;20069;-84
2022/12/21 16:02:32;;;;;;;63.08;29.77;;;;;;;;;;8332366;28;20049;-83
2022/12/21 16:06:37;;;;;;;90.50;36.67;;;;;;;;;;8332804;28;20057;-83
2022/12/21 16:10:51;;;;;;;181.68;82.93;;;;;;;;;;8330891;28;20041;-84
2022/12/21 16:14:55;;;;;;;64.28;28.65;;;;;;;;;;8331080;28;20056;-85
2022/12/21 16:19:00;;;;;;;83.45;32.83;;;;;;;;;;8331753;28;20042;-86
2022/12/21 16:23:03;;;;;;;74.88;32.28;;;;;;;;;;8334190;28;20210;-84
2022/12/21 16:27:11;;;;;;;67.95;30.98;;;;;;;;;;8337441;28;20041;-85
2022/12/21 16:31:16;;;;;;;79.63;36.47;;;;;;;;;;8339024;28;20053;-86
2022/12/21 16:35:25;;;;;;;78.95;32.33;;;;;;;;;;8337649;28;20045;-90
2022/12/21 16:39:28;;;;;;;98.43;40.65;;;;;;;;;;8337933;28;20132;-83
2022/12/21 16:43:36;;;;;;;93.25;45.05;;;;;;;;;;8337892;28;20061;-90
2022/12/21 16:47:42;;;;;;;95.07;42.30;;;;;;;;;;8337108;28;20042;-88
2022/12/21 16:51:48;;;;;;;92.05;40.42;;;;;;;;;;8337357;28;20037;-89
2022/12/21 16:56:26;;;;;;;136.77;59.22;;;;;;;;;;8337035;28;20045;-90
2022/12/21 17:00:38;;;;;;;126.30;51.78;;;;;;;;;;8337432;28;20041;-83
2022/12/21 17:04:50;;;;;;;84.95;36.22;;;;;;;;;;8338130;28;20045;-86
2022/12/21 17:09:09;;;;;;;102.65;45.13;;;;;;;;;;8336572;28;20045;-83
2022/12/21 17:13:17;;;;;;;96.82;45.00;;;;;;;;;;8335237;28;20041;-83
2022/12/21 17:17:40;;;;;;;69.95;32.63;;;;;;;;;;8337246;28;20041;-83
2022/12/21 17:22:00;;;;;;;64.28;27.20;;;;;;;;;;8336642;28;20062;-84
2022/12/21 17:26:31;;;;;;;74.60;31.87;;;;;;;;;;8335327;28;20064;-88
2022/12/21 17:30:40;;;;;;;70.93;32.08;;;;;;;;;;8336321;28;20080;-88
2022/12/21 17:34:48;;;;;;;94.78;38.05;;;;;;;;;;8334781;28;20072;-84
2022/12/21 17:38:52;;;;;;;128.50;48.03;;;;;;;;;;8335284;28;20053;-83
2022/12/21 17:42:56;;;;;;;70.00;27.30;;;;;;;;;;8335336;28;20041;-84
2022/12/21 17:47:00;;;;;;;104.47;47.60;;;;;;;;;;8335511;28;20072;-86
2022/12/21 17:51:07;;;;;;;97.43;38.80;;;;;;;;;;8336047;28;20209;-83
2022/12/21 17:55:15;;;;;;;182.73;67.82;;;;;;;;;;8335601;28;20041;-86
2022/12/21 17:59:18;;;;;;;116.15;41.85;;;;;;;;;;8335190;28;20065;-87
2022/12/21 18:03:26;;;;;;;87.53;34.55;;;;;;;;;;8336272;28;20209;-88
2022/12/21 18:07:34;;;;;;;131.00;47.80;;;;;;;;;;8335315;28;20053;-88
2022/12/21 18:11:39;;;;;;;84.65;33.45;;;;;;;;;;8335518;28;20057;-84
2022/12/21 18:15:50;;;;;;;93.80;38.22;;;;;;;;;;8336386;28;20041;-84
2022/12/21 18:19:56;;;;;;;153.30;51.33;;;;;;;;;;8335096;28;20046;-85
2022/12/21 18:24:04;;;;;;;80.80;34.25;;;;;;;;;;8333078;28;20046;-89
2022/12/21 18:28:11;;;;;;;93.47;35.95;;;;;;;;;;8335794;28;20049;-84
2022/12/21 18:32:18;;;;;;;76.68;31.23;;;;;;;;;;8333932;28;20077;-86
2022/12/21 18:36:23;;;;;;;100.70;37.67;;;;;;;;;;8333468;28;20045;-85
2022/12/21 18:40:30;;;;;;;132.15;49.28;;;;;;;;;;8332662;28;20084;-86
2022/12/21 18:44:33;;;;;;;84.60;33.28;;;;;;;;;;8332308;28;20050;-85
2022/12/21 18:48:39;;;;;;;126.68;44.72;;;;;;;;;;8333656;28;20061;-88
2022/12/21 18:52:43;;;;;;;143.02;49.88;;;;;;;;;;8335151;28;20060;-85
2022/12/21 18:56:51;;;;;;;129.23;45.78;;;;;;;;;;8333488;28;20061;-85
2022/12/21 19:00:55;;;;;;;89.20;35.25;;;;;;;;;;8334015;28;20049;-86
2022/12/21 19:05:02;;;;;;;117.03;52.92;;;;;;;;;;8315750;28;20107;-86
2022/12/21 19:09:11;;;;;;;78.00;35.50;;;;;;;;;;8334442;28;20041;-87
2022/12/21 19:13:28;;;;;;;91.55;35.53;;;;;;;;;;8333201;28;20048;-90
2022/12/21 19:17:34;;;;;;;83.22;36.30;;;;;;;;;;8333473;28;20073;-87
2022/12/21 19:21:39;;;;;;;74.57;31.65;;;;;;;;;;8332595;28;20065;-86
2022/12/21 19:25:43;;;;;;;36.40;17.42;;;;;;;;;;8332454;28;20090;-85
2022/12/21 19:29:50;;;;;;;72.75;30.15;;;;;;;;;;8332312;28;20067;-85
2022/12/21 19:33:56;;;;;;;79.97;30.95;;;;;;;;;;8332876;28;20044;-86
2022/12/21 19:38:01;;;;;;;83.13;32.25;;;;;;;;;;8332310;28;20123;-87
2022/12/21 19:42:06;;;;;;;83.13;30.83;;;;;;;;;;8332700;28;20212;-86
2022/12/21 19:46:21;;;;;;;70.93;28.30;;;;;;;;;;8333509;28;20155;-86
2022/12/21 19:50:25;;;;;;;75.38;31.45;;;;;;;;;;8333139;28;20038;-87
2022/12/21 19:54:31;;;;;;;80.97;29.77;;;;;;;;;;8332990;28;20042;-86
2022/12/21 19:58:40;;;;;;;81.50;31.15;;;;;;;;;;8335180;28;20041;-86
2022/12/21 20:02:50;;;;;;;90.80;35.55;;;;;;;;;;8338511;28;20052;-86
2022/12/21 20:06:54;;;;;;;51.05;18.20;;;;;;;;;;8338599;28;20041;-86
2022/12/21 20:10:59;;;;;;;79.40;30.10;;;;;;;;;;8338773;28;20044;-87
2022/12/21 20:15:05;;;;;;;112.38;39.05;;;;;;;;;;8338551;28;20046;-87
2022/12/21 20:19:13;;;;;;;91.38;33.95;;;;;;;;;;8338485;28;20037;-86
2022/12/21 20:23:20;;;;;;;91.35;33.15;;;;;;;;;;8337675;28;20045;-86
2022/12/21 20:27:29;;;;;;;80.18;30.48;;;;;;;;;;8338174;28;20053;-87
2022/12/21 20:31:37;;;;;;;220.73;64.72;;;;;;;;;;8337581;28;20057;-86
2022/12/21 20:35:43;;;;;;;85.82;31.60;;;;;;;;;;8338453;28;20053;-85
2022/12/21 20:39:47;;;;;;;81.43;32.30;;;;;;;;;;8337340;28;20052;-85
2022/12/21 20:43:54;;;;;;;83.95;28.98;;;;;;;;;;8337665;28;20128;-86
2022/12/21 20:47:58;;;;;;;71.47;30.73;;;;;;;;;;8337158;28;20045;-85
2022/12/21 20:52:06;;;;;;;92.55;32.92;;;;;;;;;;8337537;28;20041;-85
2022/12/21 20:56:34;;;;;;;88.82;33.65;;;;;;;;;;8337266;28;20046;-85
2022/12/21 21:00:38;;;;;;;77.72;31.08;;;;;;;;;;8336585;28;20065;-86
2022/12/21 21:04:41;;;;;;;60.15;25.13;;;;;;;;;;8336533;28;20042;-85
2022/12/21 21:08:47;;;;;;;87.13;36.90;;;;;;;;;;8336397;28;20038;-86
2022/12/21 21:12:51;;;;;;;73.05;31.20;;;;;;;;;;8336864;28;20045;-85
2022/12/21 21:16:55;;;;;;;72.82;29.98;;;;;;;;;;8336185;28;20041;-85
2022/12/21 21:25:25;;;;;;;79.20;31.58;;;;;;;;;;8303424;28;20056;-85
2022/12/21 21:29:28;;;;;;;92.75;31.38;;;;;;;;;;8336243;28;20043;-85
2022/12/21 21:33:33;;;;;;;88.63;33.20;;;;;;;;;;8335628;28;20033;-85
2022/12/21 21:37:36;;;;;;;89.55;31.70;;;;;;;;;;8335910;28;20077;-85
2022/12/21 21:41:44;;;;;;;77.80;31.55;;;;;;;;;;8335536;28;20037;-84
2022/12/21 21:45:47;;;;;;;82.55;29.85;;;;;;;;;;8335693;28;20052;-84
2022/12/21 21:49:51;;;;;;;82.30;29.73;;;;;;;;;;8335097;28;20080;-84
2022/12/21 21:53:54;;;;;;;73.28;27.73;;;;;;;;;;8334902;28;20033;-84
2022/12/21 21:57:59;;;;;;;78.53;31.08;;;;;;;;;;8334833;28;20041;-84
2022/12/21 22:02:20;;;;;;;104.40;36.80;;;;;;;;;;8335162;28;20068;-84
2022/12/21 22:06:24;;;;;;;80.63;30.65;;;;;;;;;;8335530;28;20065;-84
2022/12/21 22:10:34;;;;;;;92.32;32.95;;;;;;;;;;8333810;28;20045;-84
2022/12/21 22:15:11;;;;;;;97.75;35.58;;;;;;;;;;8334873;28;20050;-84
2022/12/21 22:19:15;;;;;;;76.13;27.80;;;;;;;;;;8333982;28;20124;-85
2022/12/21 22:32:12;;;;;;;104.13;37.42;;;;;;;;;;8333987;28;20061;-84
2022/12/21 22:45:16;;;;;;;69.85;27.38;;;;;;;;;;8334317;28;20045;-85
2022/12/21 22:49:22;;;;;;;51.13;20.60;;;;;;;;;;8333792;28;20076;-84
2022/12/21 22:53:36;;;;;;;72.53;28.92;;;;;;;;;;8334521;28;20284;-84
2022/12/21 22:57:39;;;;;;;75.22;29.02;;;;;;;;;;8333855;28;20042;-84
2022/12/21 23:01:46;;;;;;;77.75;28.38;;;;;;;;;;8332933;28;20037;-84
2022/12/21 23:05:50;;;;;;;66.97;26.33;;;;;;;;;;8333282;28;20128;-84
2022/12/21 23:09:54;;;;;;;76.88;28.60;;;;;;;;;;8333222;28;20061;-84
2022/12/21 23:18:35;;;;;;;104.35;32.25;;;;;;;;;;8332346;28;20057;-86
2022/12/21 23:44:47;;;;;;;75.00;27.33;;;;;;;;;;8331162;28;20077;-85
